This demonstration page uses our WeatherBlox Daily Observations layout. Learn more.

36.19886, -115.1175

Hourly Observations for June 12, 2018

Temp ( °F °C ) Dew Point ( °F °C ) Humidity (%) Winds ( mph kmh ) Pressure ( in mb ) Visibility ( mi km ) Precip ( " mm )
1:53 am 01:53 Clear 81 27.2 28 -2.2 14 14 NW 3 6 29.71 1006 10 16.09344 0 0
2:53 am 02:53 Clear 80 26.7 32 0 17 17 NNW 5 7 29.71 1006 10 16.09344 0 0
3:53 am 03:53 Clear 78 25.6 32 0 19 19 NW 6 9 29.74 1007 10 16.09344 0 0
4:53 am 04:53 Clear 79 26.1 31 -0.6 17 17 Calm 29.74 1007 10 16.09344 0 0
5:53 am 05:53 Sunny 78 25.6 31 -0.6 18 18 WNW 6 9 29.77 1008 10 16.09344 0 0
6:53 am 06:53 Sunny 82 27.8 29 -1.7 14 14 N 6 9 29.8 1009 10 16.09344 0 0
7:53 am 07:53 Sunny 88 31.1 27 -2.8 11 11 Calm 29.8 1009 10 16.09344 0 0
8:53 am 08:53 Sunny 89 31.7 24 -4.4 9 9 N 3 6 29.83 1010 10 16.09344 0 0
9:53 am 09:53 Sunny 93 33.9 21 -6.1 7 7 ESE 9 15 29.8 1009 10 16.09344 0 0
10:53 am 10:53 Sunny 95 35 21 -6.1 7 7 SE 7 11 29.8 1009 10 16.09344 0 0
11:53 am 11:53 Sunny 97 36.1 20 -6.7 6 6 ESE 5 7 29.8 1009 10 16.09344 0 0
12:53 pm 12:53 Sunny 99 37.2 20 -6.7 6 6 WSW 7 11 29.77 1008 10 16.09344 0 0
1:53 pm 13:53 Sunny 102 38.9 22 -5.6 6 6 S 9 15 29.74 1007 10 16.09344 0 0
2:53 pm 14:53 Sunny 102 38.9 19 -7.2 5 5 S 13 20 29.71 1006 10 16.09344 0 0
3:53 pm 15:53 Sunny 104 40 21 -6.1 5 5 SSE 10 17 29.71 1006 10 16.09344 0 0
4:53 pm 16:53 Sunny 104 40 21 -6.1 5 5 SSE 12 19 29.68 1005 10 16.09344 0 0
5:53 pm 17:53 Sunny 104 40 19 -7.2 5 5 SSE 10 17 29.65 1004 10 16.09344 0 0
6:53 pm 18:53 Sunny 103 39.4 18 -7.8 5 5 SE 12 19 29.65 1004 10 16.09344 0 0
7:53 pm 19:53 Sunny 100 37.8 20 -6.7 5 5 SSE 15 24 29.65 1004 10 16.09344 0 0
8:53 pm 20:53 Clear 98 36.7 21 -6.1 6 6 SSE 10 17 29.68 1005 10 16.09344 0 0
9:53 pm 21:53 Clear 97 36.1 23 -5 7 7 SSW 7 11 29.71 1006 10 16.09344 0 0
10:53 pm 22:53 Clear 94 34.4 25 -3.9 8 8 SSW 9 15 29.71 1006 10 16.09344 0 0
11:53 pm 23:53 Clear 91 32.8 25 -3.9 9 9 SSW 7 11 29.71 1006 10 16.09344 0 0

Powered by AerisWeather